Time;durP1;ratioP1;P1;durP2;ratioP2;P2;SDS_P1;SDS_P2;PMS_P1;PMS_P2;Temp;Humidity;BMP_temperature;BMP_pressure;BME280_temperature;BME280_humidity;BME280_pressure;Samples;Min_cycle;Max_cycle;Signal;HPM_P1;HPM_P2
2023/02/05 00:02:45;;;;;;;32.43;18.83;;;;;7.80;103239.00;;;;10038132;29;20646;-80
2023/02/05 00:07:47;;;;;;;34.83;19.17;;;;;7.80;103247.00;;;;10031822;29;20198;-81
2023/02/05 00:12:49;;;;;;;37.53;19.57;;;;;7.80;103224.00;;;;10028337;29;20219;-80
2023/02/05 00:17:51;;;;;;;36.07;19.07;;;;;7.70;103230.00;;;;10025464;29;20206;-79
2023/02/05 00:22:53;;;;;;;33.53;18.53;;;;;7.70;103210.00;;;;9994445;29;20276;-80
2023/02/05 00:27:55;;;;;;;31.63;19.17;;;;;7.70;103199.00;;;;10026790;29;20300;-80
2023/02/05 00:32:57;;;;;;;39.97;18.43;;;;;7.70;103198.00;;;;10025891;29;20220;-80
2023/02/05 00:37:59;;;;;;;38.00;17.50;;;;;7.70;103183.00;;;;9988889;29;20206;-80
2023/02/05 00:43:01;;;;;;;35.63;17.77;;;;;7.60;103176.00;;;;10022468;29;20296;-80
2023/02/05 00:48:04;;;;;;;31.77;17.57;;;;;7.60;103171.00;;;;10046809;29;20216;-81
2023/02/05 00:53:06;;;;;;;32.67;17.07;;;;;7.60;103157.00;;;;10051373;29;20221;-80
2023/02/05 00:58:09;;;;;;;30.20;16.43;;;;;7.60;103165.00;;;;10002629;29;20213;-81
2023/02/05 01:03:11;;;;;;;31.27;16.47;;;;;7.60;103159.00;;;;9988253;29;20194;-80
2023/02/05 01:08:13;;;;;;;33.10;16.73;;;;;7.60;103155.00;;;;9992710;29;20200;-80
2023/02/05 01:13:16;;;;;;;35.17;15.60;;;;;7.60;103158.00;;;;10041908;29;20209;-79
2023/02/05 01:18:19;;;;;;;27.17;15.67;;;;;7.60;103159.00;;;;10010633;29;20215;-80
2023/02/05 01:23:21;;;;;;;31.43;16.60;;;;;7.60;103156.00;;;;10010739;29;20783;-80
2023/02/05 01:28:23;;;;;;;32.13;16.40;;;;;7.60;103145.00;;;;10001130;29;20237;-79
2023/02/05 01:33:25;;;;;;;30.27;16.80;;;;;7.60;103153.00;;;;10010107;29;20316;-80
2023/02/05 01:38:27;;;;;;;28.77;15.87;;;;;7.60;103157.00;;;;10034754;29;20205;-80
2023/02/05 01:43:29;;;;;;;31.40;15.87;;;;;7.50;103166.00;;;;10024342;29;20209;-80
2023/02/05 01:48:36;;;;;;;35.50;16.80;;;;;7.50;103191.00;;;;10025084;29;20315;-81
2023/02/05 01:53:39;;;;;;;34.37;16.90;;;;;7.50;103187.00;;;;10023811;29;20217;-80
2023/02/05 01:59:07;;;;;;;35.30;16.83;;;;;7.50;103190.00;;;;10012637;29;20222;-81
2023/02/05 02:04:14;;;;;;;33.20;16.63;;;;;7.50;103190.00;;;;10025535;29;20173;-83
2023/02/05 02:09:16;;;;;;;31.23;16.30;;;;;7.50;103202.00;;;;10039666;29;20213;-82
2023/02/05 02:14:18;;;;;;;29.50;15.17;;;;;7.50;103185.00;;;;10025212;29;20214;-81
2023/02/05 02:19:42;;;;;;;28.87;14.07;;;;;7.50;103190.00;;;;10025420;29;20199;-81
2023/02/05 02:25:02;;;;;;;29.47;13.50;;;;;7.50;103193.00;;;;10039961;29;20666;-82
2023/02/05 02:30:17;;;;;;;27.00;11.50;;;;;7.40;103167.00;;;;10025184;29;20236;-81
2023/02/05 02:35:23;;;;;;;20.30;11.63;;;;;7.40;103175.00;;;;10006625;29;20228;-83
2023/02/05 02:40:48;;;;;;;18.50;9.30;;;;;7.40;103177.00;;;;10019519;29;20755;-82
2023/02/05 02:46:06;;;;;;;20.30;9.90;;;;;7.40;103183.00;;;;10046496;29;20196;-82
2023/02/05 02:51:11;;;;;;;16.13;9.60;;;;;7.30;103167.00;;;;10046816;29;20200;-82
2023/02/05 02:56:14;;;;;;;14.87;8.10;;;;;7.30;103159.00;;;;10040557;29;20281;-82
2023/02/05 03:01:20;;;;;;;12.67;7.70;;;;;7.30;103160.00;;;;9987349;29;20246;-82
2023/02/05 03:06:22;;;;;;;12.67;5.50;;;;;7.30;103152.00;;;;10003168;29;20186;-82
2023/02/05 03:11:26;;;;;;;10.00;6.40;;;;;7.30;103153.00;;;;9989268;29;20205;-82
2023/02/05 03:16:28;;;;;;;8.77;5.63;;;;;7.20;103145.00;;;;10002230;29;20290;-82
2023/02/05 03:21:33;;;;;;;8.97;5.57;;;;;7.20;103145.00;;;;10002186;29;20205;-82
2023/02/05 03:26:37;;;;;;;11.17;6.00;;;;;7.20;103139.00;;;;10023005;29;20248;-82
2023/02/05 03:32:19;;;;;;;9.60;5.37;;;;;7.10;103136.00;;;;10011484;29;20204;-82
2023/02/05 03:37:39;;;;;;;8.50;6.00;;;;;7.10;103151.00;;;;10029868;29;20621;-83
2023/02/05 03:43:20;;;;;;;10.70;5.30;;;;;7.00;103145.00;;;;10022081;29;20732;-82
2023/02/05 03:48:44;;;;;;;7.87;5.23;;;;;7.00;103140.00;;;;10031107;29;20559;-82
2023/02/05 03:54:18;;;;;;;8.20;5.33;;;;;7.00;103155.00;;;;10029992;29;20228;-82
2023/02/05 03:59:22;;;;;;;6.67;4.83;;;;;7.00;103129.00;;;;9983176;29;20300;-82
2023/02/05 04:04:25;;;;;;;9.20;5.00;;;;;7.00;103138.00;;;;10054369;29;20295;-82
2023/02/05 04:09:27;;;;;;;11.57;5.00;;;;;7.00;103137.00;;;;10065842;29;20204;-82
2023/02/05 04:14:30;;;;;;;11.83;5.33;;;;;6.90;103138.00;;;;10050499;29;20679;-82
2023/02/05 04:19:32;;;;;;;11.93;5.63;;;;;6.90;103141.00;;;;10053127;29;20207;-82
2023/02/05 04:24:35;;;;;;;11.33;5.80;;;;;6.90;103140.00;;;;10062562;29;20556;-82
2023/02/05 04:29:38;;;;;;;11.17;6.00;;;;;6.90;103151.00;;;;9991061;29;20233;-82
2023/02/05 04:34:41;;;;;;;10.30;6.37;;;;;7.00;103157.00;;;;9986470;29;20221;-82
2023/02/05 04:39:46;;;;;;;13.23;6.70;;;;;7.00;103176.00;;;;10043752;29;20197;-82
2023/02/05 04:44:48;;;;;;;10.30;5.90;;;;;7.00;103186.00;;;;10013304;29;20181;-82
2023/02/05 04:49:49;;;;;;;12.80;6.77;;;;;7.00;103190.00;;;;10012335;29;20208;-82
2023/02/05 04:54:51;;;;;;;13.83;7.13;;;;;6.80;103193.00;;;;10011524;29;20219;-82
2023/02/05 04:59:53;;;;;;;10.33;7.80;;;;;6.70;103199.00;;;;10027266;29;20293;-81
2023/02/05 05:04:55;;;;;;;11.93;8.17;;;;;6.60;103200.00;;;;10049650;29;20193;-81
2023/02/05 05:09:57;;;;;;;17.53;8.47;;;;;6.50;103204.00;;;;10041739;29;20284;-81
2023/02/05 05:14:59;;;;;;;15.70;8.93;;;;;6.60;103200.00;;;;9993922;29;20209;-80
2023/02/05 05:20:02;;;;;;;14.37;9.27;;;;;6.50;103190.00;;;;9986225;29;20289;-80
2023/02/05 05:25:05;;;;;;;15.17;9.90;;;;;6.50;103195.00;;;;10031146;29;20296;-79
2023/02/05 05:30:07;;;;;;;15.23;10.57;;;;;6.50;103195.00;;;;10023581;29;20240;-79
2023/02/05 05:35:09;;;;;;;18.03;10.23;;;;;6.50;103204.00;;;;10008681;29;20224;-80
2023/02/05 05:45:32;;;;;;;20.07;11.47;;;;;6.50;103174.00;;;;9985430;29;20197;-81
2023/02/05 05:50:34;;;;;;;17.63;11.67;;;;;6.50;103178.00;;;;9970841;29;20197;-80
2023/02/05 05:55:36;;;;;;;19.23;12.67;;;;;6.50;103178.00;;;;9974925;29;20209;-80
2023/02/05 06:00:40;;;;;;;20.03;12.97;;;;;6.50;103168.00;;;;10046376;29;20188;-80
2023/02/05 06:05:42;;;;;;;21.73;12.63;;;;;6.50;103159.00;;;;10060121;29;20197;-80
2023/02/05 06:10:43;;;;;;;21.53;13.27;;;;;6.50;103159.00;;;;10052240;29;20208;-79
2023/02/05 06:15:47;;;;;;;26.37;14.30;;;;;6.60;103165.00;;;;10022159;29;20688;-80
2023/02/05 06:20:49;;;;;;;24.77;14.63;;;;;6.60;103174.00;;;;10022142;29;20209;-80
2023/02/05 06:25:52;;;;;;;20.53;12.83;;;;;6.60;103167.00;;;;10040466;29;20826;-80
2023/02/05 06:30:53;;;;;;;22.93;14.90;;;;;6.60;103173.00;;;;10009621;29;20277;-80
2023/02/05 06:35:55;;;;;;;22.50;13.20;;;;;6.70;103183.00;;;;10022864;29;20221;-80
2023/02/05 06:40:57;;;;;;;16.67;10.87;;;;;6.70;103191.00;;;;10023662;29;20628;-80
2023/02/05 06:45:59;;;;;;;13.57;7.40;;;;;6.70;103191.00;;;;9983957;29;20258;-80
2023/02/05 06:51:03;;;;;;;9.60;5.53;;;;;6.70;103198.00;;;;9991232;29;20202;-80
2023/02/05 06:56:05;;;;;;;10.17;5.20;;;;;6.70;103208.00;;;;9985323;29;20212;-80
2023/02/05 07:01:07;;;;;;;6.33;4.50;;;;;6.70;103225.00;;;;10023149;29;20196;-80
2023/02/05 07:06:09;;;;;;;5.93;3.73;;;;;6.70;103252.00;;;;10017663;29;20193;-80
2023/02/05 07:11:12;;;;;;;9.37;2.80;;;;;6.70;103258.00;;;;10011482;29;20217;-80
2023/02/05 07:16:14;;;;;;;5.00;2.40;;;;;6.70;103271.00;;;;10045611;29;20212;-79
2023/02/05 07:21:18;;;;;;;8.80;2.40;;;;;6.70;103289.00;;;;10041589;29;20246;-80
2023/02/05 07:26:20;;;;;;;5.13;2.00;;;;;6.60;103313.00;;;;10009555;29;20242;-81
2023/02/05 07:31:22;;;;;;;8.47;1.43;;;;;6.60;103317.00;;;;10018286;29;20718;-80
2023/02/05 07:36:23;;;;;;;4.77;1.20;;;;;6.50;103342.00;;;;10034695;29;20211;-81
2023/02/05 07:41:25;;;;;;;5.70;1.20;;;;;6.40;103346.00;;;;10017062;29;20201;-81
2023/02/05 07:46:29;;;;;;;4.40;1.40;;;;;6.40;103362.00;;;;10014723;29;20196;-81
2023/02/05 07:51:31;;;;;;;8.00;1.13;;;;;6.50;103368.00;;;;10024403;29;20201;-82
2023/02/05 07:56:33;;;;;;;5.80;0.93;;;;;6.50;103372.00;;;;10012650;29;20216;-82
2023/02/05 08:01:35;;;;;;;4.23;1.17;;;;;6.50;103378.00;;;;10037879;29;20224;-81
2023/02/05 08:06:37;;;;;;;10.27;1.50;;;;;6.50;103398.00;;;;10021532;29;20197;-81
2023/02/05 08:11:39;;;;;;;2.27;0.80;;;;;6.60;103402.00;;;;10010780;29;20201;-81
2023/02/05 08:16:41;;;;;;;4.70;1.53;;;;;6.70;103401.00;;;;10024363;29;20252;-81
2023/02/05 08:21:43;;;;;;;5.10;1.00;;;;;6.80;103429.00;;;;10007769;29;20206;-82
2023/02/05 08:26:45;;;;;;;11.63;1.43;;;;;6.70;103434.00;;;;10021534;29;20583;-81
2023/02/05 08:31:48;;;;;;;5.50;1.53;;;;;6.80;103440.00;;;;9979600;29;20634;-82
2023/02/05 08:36:50;;;;;;;7.00;1.60;;;;;7.20;103437.00;;;;10030511;29;20878;-82
2023/02/05 08:41:52;;;;;;;4.27;1.23;;;;;7.10;103445.00;;;;10024246;29;20572;-81
2023/02/05 08:46:57;;;;;;;9.87;1.70;;;;;7.30;103436.00;;;;10036928;29;20197;-83
2023/02/05 08:51:59;;;;;;;11.17;1.50;;;;;7.50;103442.00;;;;10008976;29;20285;-81
2023/02/05 08:57:02;;;;;;;10.70;1.53;;;;;7.30;103451.00;;;;10014669;29;20237;-82
2023/02/05 09:02:04;;;;;;;15.77;1.97;;;;;7.10;103456.00;;;;10023750;29;20208;-82
2023/02/05 09:07:06;;;;;;;11.27;1.67;;;;;7.20;103441.00;;;;10001240;29;20197;-82
2023/02/05 09:12:09;;;;;;;15.37;2.37;;;;;7.40;103438.00;;;;10027922;29;20225;-82
2023/02/05 09:17:13;;;;;;;14.93;1.73;;;;;7.40;103436.00;;;;10011472;29;20213;-82
2023/02/05 09:22:17;;;;;;;12.67;2.27;;;;;7.30;103441.00;;;;10018067;29;20197;-82
2023/02/05 09:27:19;;;;;;;13.57;2.67;;;;;7.20;103463.00;;;;10003403;29;20228;-82
2023/02/05 09:32:20;;;;;;;8.37;1.67;;;;;7.00;103475.00;;;;10012708;29;20250;-81
2023/02/05 09:37:22;;;;;;;12.13;1.70;;;;;6.90;103462.00;;;;9989481;29;20293;-81
2023/02/05 09:42:38;;;;;;;10.77;1.90;;;;;7.10;103486.00;;;;10010741;29;20197;-81
2023/02/05 09:47:58;;;;;;;5.70;2.17;;;;;7.60;103500.00;;;;10019931;29;20203;-81
2023/02/05 09:53:04;;;;;;;12.43;3.40;;;;;8.20;103485.00;;;;10008669;29;20201;-81
2023/02/05 09:58:12;;;;;;;16.60;2.23;;;;;8.60;103481.00;;;;10007155;29;20657;-81
2023/02/05 10:03:27;;;;;;;15.73;2.90;;;;;9.20;103462.00;;;;10018242;29;20193;-81
2023/02/05 10:08:55;;;;;;;20.60;3.27;;;;;9.20;103456.00;;;;10009903;29;20265;-81
2023/02/05 10:14:16;;;;;;;15.93;3.40;;;;;8.70;103440.00;;;;9999308;29;20220;-82
2023/02/05 10:19:33;;;;;;;13.03;2.27;;;;;9.00;103430.00;;;;10021590;29;20296;-83
2023/02/05 10:25:03;;;;;;;19.90;3.80;;;;;9.30;103410.00;;;;10024663;29;20196;-83
2023/02/05 10:30:29;;;;;;;10.83;1.90;;;;;9.90;103470.00;;;;9995138;29;20225;-83
2023/02/05 10:35:43;;;;;;;16.23;3.03;;;;;10.60;103460.00;;;;10017000;29;22310;-82
2023/02/05 10:40:45;;;;;;;12.80;3.07;;;;;9.90;103455.00;;;;10014762;29;20209;-82
2023/02/05 10:45:49;;;;;;;15.80;3.27;;;;;8.70;103467.00;;;;10015594;29;20732;-84
2023/02/05 10:50:59;;;;;;;20.63;3.60;;;;;8.70;103462.00;;;;10031816;29;20292;-82
2023/02/05 10:56:05;;;;;;;12.73;3.10;;;;;9.30;103465.00;;;;10016519;29;20674;-83
2023/02/05 11:01:17;;;;;;;14.77;3.23;;;;;9.50;103455.00;;;;10019460;29;20194;-82
2023/02/05 11:06:22;;;;;;;12.97;2.63;;;;;9.60;103455.00;;;;10026950;29;20240;-82
2023/02/05 11:11:30;;;;;;;21.83;2.67;;;;;9.60;103468.00;;;;10025977;29;20197;-82
2023/02/05 11:16:40;;;;;;;12.67;2.17;;;;;9.60;103481.00;;;;10024517;29;20239;-82
2023/02/05 11:21:59;;;;;;;16.33;2.77;;;;;10.00;103471.00;;;;10023934;29;20200;-82
2023/02/05 11:27:14;;;;;;;13.17;2.77;;;;;10.10;103475.00;;;;10022318;29;20224;-83
2023/02/05 11:32:38;;;;;;;13.90;2.50;;;;;9.90;103478.00;;;;10027244;29;20276;-83
2023/02/05 11:37:40;;;;;;;13.37;2.70;;;;;9.70;103463.00;;;;10013728;29;20212;-82
2023/02/05 11:42:49;;;;;;;10.27;2.60;;;;;10.40;103470.00;;;;10038067;29;20218;-82
2023/02/05 11:47:51;;;;;;;11.03;2.70;;;;;10.50;103436.00;;;;10014343;29;20205;-82
2023/02/05 11:52:55;;;;;;;17.70;3.07;;;;;10.90;103412.00;;;;10023544;29;20213;-83
2023/02/05 11:58:00;;;;;;;10.30;2.07;;;;;10.60;103411.00;;;;10010482;29;20225;-83
2023/02/05 12:03:16;;;;;;;23.30;3.00;;;;;11.10;103416.00;;;;10001560;29;20663;-82
2023/02/05 12:08:33;;;;;;;20.00;3.00;;;;;11.30;103418.00;;;;10010791;29;20681;-83
2023/02/05 12:14:00;;;;;;;15.10;3.23;;;;;11.40;103419.00;;;;10005032;29;20680;-83
2023/02/05 12:19:19;;;;;;;14.87;2.90;;;;;11.00;103394.00;;;;10038625;29;20193;-82
2023/02/05 12:24:30;;;;;;;15.73;3.23;;;;;10.40;103421.00;;;;10025668;29;20194;-82
2023/02/05 12:29:57;;;;;;;10.53;2.10;;;;;11.00;103411.00;;;;10028488;29;20861;-82
2023/02/05 12:35:05;;;;;;;19.23;2.97;;;;;11.40;103426.00;;;;10032976;29;20266;-83
2023/02/05 12:40:40;;;;;;;16.73;2.83;;;;;11.80;103414.00;;;;9998391;29;20563;-84
2023/02/05 12:45:55;;;;;;;8.83;3.47;;;;;11.80;103410.00;;;;10066890;29;20570;-82
2023/02/05 12:51:35;;;;;;;16.87;2.90;;;;;10.80;103436.00;;;;10020347;29;20753;-82
2023/02/05 12:56:51;;;;;;;12.50;2.23;;;;;10.70;103414.00;;;;10030139;29;20748;-81
2023/02/05 13:02:32;;;;;;;17.87;2.80;;;;;11.00;103402.00;;;;10002216;29;20204;-82
2023/02/05 13:08:02;;;;;;;14.77;2.37;;;;;11.20;103415.00;;;;10001835;29;20240;-82
2023/02/05 13:13:10;;;;;;;11.97;2.50;;;;;11.70;103418.00;;;;10031969;29;20201;-82
2023/02/05 13:18:19;;;;;;;11.33;2.47;;;;;10.80;103435.00;;;;10028302;29;20209;-81
2023/02/05 13:28:46;;;;;;;8.13;1.93;;;;;10.90;103446.00;;;;10024736;29;20233;-82
2023/02/05 13:33:50;;;;;;;12.90;2.73;;;;;11.40;103430.00;;;;10025224;29;20213;-82
2023/02/05 13:39:09;;;;;;;17.20;2.80;;;;;11.40;103437.00;;;;10001147;29;20201;-82
2023/02/05 13:44:29;;;;;;;12.93;2.27;;;;;11.40;103422.00;;;;10033011;29;20271;-82
2023/02/05 13:50:04;;;;;;;17.50;3.23;;;;;11.40;103427.00;;;;10003272;29;20201;-82
2023/02/05 13:55:26;;;;;;;14.20;2.87;;;;;11.60;103432.00;;;;10023842;29;20265;-83
2023/02/05 14:00:28;;;;;;;15.07;2.77;;;;;10.70;103432.00;;;;10019803;29;20205;-82
2023/02/05 14:05:37;;;;;;;11.20;2.07;;;;;10.30;103414.00;;;;10015414;29;20605;-82
2023/02/05 14:10:43;;;;;;;17.80;3.00;;;;;10.30;103421.00;;;;10022861;29;20676;-81
2023/02/05 14:15:46;;;;;;;10.43;2.27;;;;;10.60;103431.00;;;;10046195;29;20212;-81
2023/02/05 14:20:48;;;;;;;16.10;2.60;;;;;10.90;103431.00;;;;10046535;29;20196;-82
2023/02/05 14:26:02;;;;;;;12.80;2.97;;;;;11.10;103447.00;;;;10032772;29;20653;-83
2023/02/05 14:31:06;;;;;;;14.27;2.63;;;;;10.70;103435.00;;;;10024477;29;20352;-84
2023/02/05 14:36:19;;;;;;;11.27;2.07;;;;;11.20;103417.00;;;;10004283;29;20228;-84
2023/02/05 14:41:27;;;;;;;7.77;1.83;;;;;12.80;103421.00;;;;10010116;29;20276;-83
2023/02/05 14:46:44;;;;;;;12.03;2.53;;;;;12.60;103434.00;;;;9985691;29;20221;-84
2023/02/05 14:51:59;;;;;;;11.33;2.47;;;;;10.80;103440.00;;;;10006865;29;20260;-83
2023/02/05 14:57:16;;;;;;;20.53;3.27;;;;;10.50;103436.00;;;;10008085;29;20215;-83
2023/02/05 15:02:51;;;;;;;12.00;2.23;;;;;11.30;103409.00;;;;10004273;29;20260;-83
2023/02/05 15:08:18;;;;;;;13.50;2.77;;;;;10.20;103425.00;;;;10018193;29;20205;-83
2023/02/05 15:13:25;;;;;;;19.03;3.30;;;;;9.50;103433.00;;;;10015099;29;20299;-82
2023/02/05 15:18:31;;;;;;;11.50;2.10;;;;;9.10;103440.00;;;;10012694;29;20703;-83
2023/02/05 15:23:39;;;;;;;18.73;3.03;;;;;9.00;103460.00;;;;10013232;29;20236;-82
2023/02/05 15:28:51;;;;;;;12.53;2.37;;;;;9.50;103460.00;;;;10011071;29;20241;-83
2023/02/05 15:34:00;;;;;;;12.47;2.53;;;;;9.50;103470.00;;;;10030473;29;20205;-84
2023/02/05 15:39:28;;;;;;;10.53;2.20;;;;;9.00;103476.00;;;;10031182;29;20205;-83
2023/02/05 15:44:32;;;;;;;12.33;3.17;;;;;8.60;103472.00;;;;10008056;29;20197;-82
2023/02/05 15:49:42;;;;;;;20.33;2.77;;;;;8.40;103468.00;;;;10022656;29;20345;-83
2023/02/05 15:54:44;;;;;;;12.07;3.07;;;;;8.30;103478.00;;;;10010301;29;20241;-82
2023/02/05 15:59:47;;;;;;;13.60;2.50;;;;;8.00;103481.00;;;;10024055;29;20193;-82
2023/02/05 16:05:16;;;;;;;14.83;2.27;;;;;7.70;103484.00;;;;10013323;29;20201;-83
2023/02/05 16:10:22;;;;;;;12.17;1.93;;;;;7.50;103490.00;;;;9984235;29;20221;-82
2023/02/05 16:15:28;;;;;;;8.87;2.07;;;;;7.40;103499.00;;;;10010467;29;20219;-81
2023/02/05 16:20:40;;;;;;;10.60;1.93;;;;;7.30;103512.00;;;;10014482;29;20248;-82
2023/02/05 16:25:55;;;;;;;11.97;2.67;;;;;7.20;103535.00;;;;10020778;29;20196;-81
2023/02/05 16:30:59;;;;;;;11.37;2.57;;;;;7.10;103543.00;;;;10004628;29;20221;-83
2023/02/05 16:36:05;;;;;;;14.63;2.90;;;;;7.10;103549.00;;;;9997376;29;20605;-82
2023/02/05 16:41:35;;;;;;;10.63;3.30;;;;;7.00;103558.00;;;;10007493;29;20358;-83
2023/02/05 16:46:37;;;;;;;13.53;2.53;;;;;6.90;103556.00;;;;10000737;29;20246;-83
2023/02/05 16:51:39;;;;;;;21.73;3.23;;;;;6.80;103555.00;;;;10008026;29;20687;-83
2023/02/05 16:56:49;;;;;;;17.03;2.60;;;;;6.70;103572.00;;;;9996522;29;20228;-83
2023/02/05 17:01:52;;;;;;;12.60;2.80;;;;;6.60;103563.00;;;;10027216;29;20258;-82
2023/02/05 17:06:56;;;;;;;10.47;2.60;;;;;6.50;103571.00;;;;10022730;29;20292;-83
2023/02/05 17:12:20;;;;;;;14.93;3.17;;;;;6.40;103575.00;;;;10024672;29;20212;-82
2023/02/05 17:17:24;;;;;;;14.50;2.70;;;;;6.20;103568.00;;;;10011016;29;20323;-81
2023/02/05 17:22:26;;;;;;;12.77;2.70;;;;;6.10;103572.00;;;;10040971;29;20280;-81
2023/02/05 17:27:31;;;;;;;14.90;2.97;;;;;6.10;103576.00;;;;10019209;29;20225;-81
2023/02/05 17:32:33;;;;;;;13.00;2.50;;;;;6.00;103581.00;;;;10003645;29;20201;-82
2023/02/05 17:37:35;;;;;;;12.93;3.10;;;;;5.90;103593.00;;;;10026604;29;20209;-82
2023/02/05 17:42:39;;;;;;;24.03;4.00;;;;;5.70;103594.00;;;;10005464;29;20212;-84
2023/02/05 17:47:42;;;;;;;13.37;3.13;;;;;5.60;103601.00;;;;9994862;29;20280;-81
2023/02/05 17:52:44;;;;;;;11.83;2.83;;;;;5.50;103611.00;;;;9974897;29;20296;-81
2023/02/05 17:57:47;;;;;;;15.27;4.77;;;;;5.40;103611.00;;;;10017433;29;20205;-81
2023/02/05 18:02:49;;;;;;;11.60;2.83;;;;;5.40;103627.00;;;;10028246;29;20216;-81
2023/02/05 18:07:55;;;;;;;16.17;3.43;;;;;5.30;103619.00;;;;10041149;29;20213;-83
2023/02/05 18:12:57;;;;;;;11.63;3.17;;;;;5.40;103620.00;;;;10028049;29;20225;-81
2023/02/05 18:18:04;;;;;;;13.77;3.50;;;;;5.40;103628.00;;;;10000996;29;20243;-81
2023/02/05 18:23:06;;;;;;;12.60;3.27;;;;;5.30;103626.00;;;;10018259;29;20230;-81
2023/02/05 18:28:13;;;;;;;10.50;2.93;;;;;5.30;103626.00;;;;10018324;29;20232;-81
2023/02/05 18:33:16;;;;;;;11.57;3.00;;;;;5.20;103629.00;;;;10021960;29;20205;-81
2023/02/05 18:38:22;;;;;;;21.93;3.50;;;;;5.20;103616.00;;;;10019021;29;20285;-81
2023/02/05 18:43:23;;;;;;;12.87;2.73;;;;;5.20;103632.00;;;;9988722;29;20632;-81
2023/02/05 18:48:25;;;;;;;20.77;3.63;;;;;5.10;103637.00;;;;10001245;29;20201;-84
2023/02/05 18:53:28;;;;;;;21.33;4.10;;;;;5.10;103628.00;;;;10012322;29;20265;-81
2023/02/05 18:58:32;;;;;;;17.17;3.10;;;;;5.00;103645.00;;;;10007292;29;20308;-83
2023/02/05 19:03:36;;;;;;;22.53;3.67;;;;;5.00;103656.00;;;;10025982;29;20208;-82
2023/02/05 19:08:39;;;;;;;21.60;3.57;;;;;5.10;103647.00;;;;10031473;29;20645;-81
2023/02/05 19:13:41;;;;;;;26.90;4.30;;;;;5.10;103651.00;;;;10030587;29;20288;-81
2023/02/05 19:18:47;;;;;;;21.90;4.10;;;;;5.10;103657.00;;;;10031073;29;20205;-80
2023/02/05 19:23:53;;;;;;;16.13;3.40;;;;;5.00;103657.00;;;;10021969;29;20217;-81
2023/02/05 19:29:03;;;;;;;14.03;3.43;;;;;4.90;103668.00;;;;10012740;29;20252;-82
2023/02/05 19:34:08;;;;;;;14.97;4.23;;;;;4.80;103673.00;;;;10002582;29;20189;-81
2023/02/05 19:39:13;;;;;;;26.80;4.30;;;;;4.80;103678.00;;;;10031017;29;20213;-81
2023/02/05 19:44:16;;;;;;;25.73;4.17;;;;;4.70;103673.00;;;;10022808;29;20224;-83
2023/02/05 19:49:20;;;;;;;19.10;3.30;;;;;4.60;103665.00;;;;10014996;29;20202;-81
2023/02/05 19:54:22;;;;;;;18.00;3.90;;;;;4.60;103680.00;;;;10029159;29;20561;-83
2023/02/05 19:59:24;;;;;;;24.83;4.20;;;;;4.60;103682.00;;;;10014863;29;20217;-83
2023/02/05 20:04:27;;;;;;;18.97;3.57;;;;;4.50;103675.00;;;;10011473;29;20201;-83
2023/02/05 20:09:30;;;;;;;27.23;4.40;;;;;4.50;103683.00;;;;10019851;29;20291;-83
2023/02/05 20:14:33;;;;;;;23.23;4.60;;;;;4.50;103684.00;;;;10022984;29;20198;-82
2023/02/05 20:19:35;;;;;;;18.07;3.40;;;;;4.40;103679.00;;;;10018669;29;20229;-83
2023/02/05 20:24:37;;;;;;;26.27;4.67;;;;;4.30;103677.00;;;;10032367;29;20204;-83
2023/02/05 20:34:59;;;;;;;25.10;3.87;;;;;4.20;103700.00;;;;10040110;29;20308;-83
2023/02/05 20:40:04;;;;;;;21.30;4.00;;;;;4.10;103701.00;;;;10038281;29;20221;-82
2023/02/05 20:45:07;;;;;;;22.23;4.40;;;;;4.10;103702.00;;;;10005275;29;20232;-83
2023/02/05 20:50:09;;;;;;;28.77;4.37;;;;;4.00;103695.00;;;;10000484;29;20203;-82
2023/02/05 20:55:13;;;;;;;19.20;4.07;;;;;4.00;103698.00;;;;10027029;29;20714;-84
2023/02/05 21:00:15;;;;;;;20.27;5.73;;;;;4.00;103692.00;;;;10015865;29;20219;-83
2023/02/05 21:05:17;;;;;;;21.27;3.83;;;;;3.90;103694.00;;;;9996436;29;20201;-83
2023/02/05 21:10:21;;;;;;;18.57;4.07;;;;;3.90;103689.00;;;;10020753;29;20196;-83
2023/02/05 21:15:22;;;;;;;16.63;4.03;;;;;3.90;103685.00;;;;10016820;29;20217;-83
2023/02/05 21:20:28;;;;;;;13.03;4.17;;;;;3.80;103706.00;;;;10003979;29;20213;-83
2023/02/05 21:25:34;;;;;;;18.63;3.47;;;;;3.80;103714.00;;;;10016014;29;20226;-83
2023/02/05 21:30:36;;;;;;;19.10;4.23;;;;;3.70;103710.00;;;;10010443;29;20312;-84
2023/02/05 21:35:39;;;;;;;23.60;4.07;;;;;3.70;103722.00;;;;10033688;29;20622;-83
2023/02/05 21:40:43;;;;;;;23.40;4.87;;;;;3.70;103714.00;;;;10027018;29;20205;-83
2023/02/05 21:45:45;;;;;;;28.77;4.83;;;;;3.70;103731.00;;;;10013781;29;20278;-83
2023/02/05 21:50:47;;;;;;;30.37;5.93;;;;;3.70;103723.00;;;;10005363;29;20201;-83
2023/02/05 21:55:48;;;;;;;25.20;3.63;;;;;3.70;103727.00;;;;9992714;29;20245;-83
2023/02/05 22:00:50;;;;;;;22.70;4.50;;;;;3.60;103719.00;;;;10021253;29;20599;-83
2023/02/05 22:05:55;;;;;;;16.47;3.97;;;;;3.60;103713.00;;;;9996378;29;20681;-84
2023/02/05 22:11:01;;;;;;;25.87;4.87;;;;;3.60;103709.00;;;;10020807;29;20201;-83
2023/02/05 22:16:19;;;;;;;22.43;4.23;;;;;3.50;103707.00;;;;10025402;29;20213;-83
2023/02/05 22:21:29;;;;;;;22.90;4.00;;;;;3.50;103710.00;;;;10005688;29;20656;-83
2023/02/05 22:26:38;;;;;;;13.50;3.33;;;;;3.50;103704.00;;;;10034637;29;20623;-82
2023/02/05 22:31:40;;;;;;;27.20;4.07;;;;;3.40;103706.00;;;;10012514;29;20205;-83
2023/02/05 22:36:43;;;;;;;17.03;3.50;;;;;3.40;103693.00;;;;10028126;29;20216;-83
2023/02/05 22:41:45;;;;;;;21.20;3.30;;;;;3.40;103690.00;;;;10033927;29;20201;-83
2023/02/05 22:46:47;;;;;;;19.33;4.20;;;;;3.30;103700.00;;;;10033903;29;20200;-82
2023/02/05 22:51:51;;;;;;;20.13;4.00;;;;;3.20;103689.00;;;;10020726;29;20202;-83
2023/02/05 22:56:52;;;;;;;15.73;3.87;;;;;3.10;103691.00;;;;10016294;29;20329;-82
2023/02/05 23:01:54;;;;;;;21.93;3.17;;;;;3.00;103696.00;;;;10010613;29;20208;-83
2023/02/05 23:06:56;;;;;;;15.20;3.67;;;;;2.90;103682.00;;;;10005047;29;20201;-82
2023/02/05 23:11:59;;;;;;;21.73;4.33;;;;;2.90;103694.00;;;;10020539;29;20281;-82
2023/02/05 23:17:01;;;;;;;20.50;4.03;;;;;2.90;103688.00;;;;10041123;29;20217;-82
2023/02/05 23:22:08;;;;;;;18.17;3.50;;;;;2.90;103693.00;;;;10016020;29;20197;-82
2023/02/05 23:27:10;;;;;;;20.80;4.00;;;;;2.90;103700.00;;;;10031044;29;20240;-83
2023/02/05 23:32:13;;;;;;;21.03;4.03;;;;;2.90;103710.00;;;;10002940;29;20694;-83
2023/02/05 23:37:15;;;;;;;24.50;3.20;;;;;2.80;103727.00;;;;10007883;29;20270;-83
2023/02/05 23:42:17;;;;;;;25.63;3.77;;;;;2.80;103724.00;;;;10002270;29;20204;-83
2023/02/05 23:47:19;;;;;;;18.20;4.60;;;;;2.80;103723.00;;;;10016174;29;20451;-82
2023/02/05 23:52:21;;;;;;;33.03;4.00;;;;;2.80;103723.00;;;;10026191;29;20265;-82
2023/02/05 23:57:23;;;;;;;16.80;3.73;;;;;2.70;103719.00;;;;9992967;29;20216;-82
